sensor_id;sensor_type;location;lat;lon;timestamp;P1;durP1;ratioP1;P2;durP2;ratioP2
52104;SDS011;38103;42.776;23.112;2022-07-21T00:01:26;6.85;;;2.30;;
52104;SDS011;38103;42.776;23.112;2022-07-21T00:03:51;9.23;;;2.90;;
52104;SDS011;38103;42.776;23.112;2022-07-21T00:06:16;6.68;;;2.40;;
52104;SDS011;38103;42.776;23.112;2022-07-21T00:08:42;12.05;;;3.10;;
52104;SDS011;38103;42.776;23.112;2022-07-21T00:11:07;11.23;;;2.85;;
52104;SDS011;38103;42.776;23.112;2022-07-21T00:13:33;18.35;;;3.20;;
52104;SDS011;38103;42.776;23.112;2022-07-21T00:15:58;13.68;;;3.40;;
52104;SDS011;38103;42.776;23.112;2022-07-21T00:18:24;8.07;;;2.90;;
52104;SDS011;38103;42.776;23.112;2022-07-21T00:20:53;10.40;;;2.55;;
52104;SDS011;38103;42.776;23.112;2022-07-21T00:23:22;7.47;;;2.85;;
52104;SDS011;38103;42.776;23.112;2022-07-21T00:25:49;7.55;;;2.65;;
52104;SDS011;38103;42.776;23.112;2022-07-21T00:28:14;6.65;;;2.60;;
52104;SDS011;38103;42.776;23.112;2022-07-21T00:30:40;11.98;;;3.22;;
52104;SDS011;38103;42.776;23.112;2022-07-21T00:33:05;8.80;;;2.78;;
52104;SDS011;38103;42.776;23.112;2022-07-21T00:35:31;7.53;;;2.70;;
52104;SDS011;38103;42.776;23.112;2022-07-21T00:37:57;7.88;;;2.67;;
52104;SDS011;38103;42.776;23.112;2022-07-21T00:40:22;11.88;;;2.60;;
52104;SDS011;38103;42.776;23.112;2022-07-21T00:42:48;15.50;;;3.30;;
52104;SDS011;38103;42.776;23.112;2022-07-21T00:45:13;12.35;;;4.03;;
52104;SDS011;38103;42.776;23.112;2022-07-21T00:47:39;13.70;;;3.45;;
52104;SDS011;38103;42.776;23.112;2022-07-21T00:50:09;9.52;;;2.80;;
52104;SDS011;38103;42.776;23.112;2022-07-21T00:52:40;10.50;;;3.00;;
52104;SDS011;38103;42.776;23.112;2022-07-21T00:55:06;7.78;;;2.80;;
52104;SDS011;38103;42.776;23.112;2022-07-21T00:57:34;11.13;;;3.15;;
52104;SDS011;38103;42.776;23.112;2022-07-21T01:00:00;8.10;;;2.90;;
52104;SDS011;38103;42.776;23.112;2022-07-21T01:02:26;10.35;;;2.90;;
52104;SDS011;38103;42.776;23.112;2022-07-21T01:04:53;10.55;;;3.25;;
52104;SDS011;38103;42.776;23.112;2022-07-21T01:07:19;8.60;;;2.90;;
52104;SDS011;38103;42.776;23.112;2022-07-21T01:09:45;9.50;;;3.10;;
52104;SDS011;38103;42.776;23.112;2022-07-21T01:12:10;7.47;;;2.88;;
52104;SDS011;38103;42.776;23.112;2022-07-21T01:14:38;11.57;;;3.25;;
52104;SDS011;38103;42.776;23.112;2022-07-21T01:17:03;9.70;;;3.40;;
52104;SDS011;38103;42.776;23.112;2022-07-21T01:19:29;10.38;;;3.20;;
52104;SDS011;38103;42.776;23.112;2022-07-21T01:21:55;10.35;;;3.10;;
52104;SDS011;38103;42.776;23.112;2022-07-21T01:24:20;8.57;;;2.92;;
52104;SDS011;38103;42.776;23.112;2022-07-21T01:26:49;9.35;;;3.10;;
52104;SDS011;38103;42.776;23.112;2022-07-21T01:29:16;8.05;;;3.00;;
52104;SDS011;38103;42.776;23.112;2022-07-21T01:31:43;10.48;;;3.17;;
52104;SDS011;38103;42.776;23.112;2022-07-21T01:34:11;10.10;;;3.38;;
52104;SDS011;38103;42.776;23.112;2022-07-21T01:36:37;9.35;;;3.35;;
52104;SDS011;38103;42.776;23.112;2022-07-21T01:39:03;9.45;;;3.40;;
52104;SDS011;38103;42.776;23.112;2022-07-21T01:41:48;13.55;;;3.45;;
52104;SDS011;38103;42.776;23.112;2022-07-21T01:44:14;10.82;;;3.63;;
52104;SDS011;38103;42.776;23.112;2022-07-21T01:46:41;9.15;;;3.95;;
52104;SDS011;38103;42.776;23.112;2022-07-21T01:49:10;10.50;;;3.50;;
52104;SDS011;38103;42.776;23.112;2022-07-21T01:51:36;8.55;;;3.33;;
52104;SDS011;38103;42.776;23.112;2022-07-21T01:54:02;10.23;;;3.30;;
52104;SDS011;38103;42.776;23.112;2022-07-21T01:56:28;11.23;;;3.58;;
52104;SDS011;38103;42.776;23.112;2022-07-21T01:58:54;8.95;;;3.30;;
52104;SDS011;38103;42.776;23.112;2022-07-21T02:01:21;10.65;;;3.60;;
52104;SDS011;38103;42.776;23.112;2022-07-21T02:03:48;14.07;;;3.80;;
52104;SDS011;38103;42.776;23.112;2022-07-21T02:06:14;11.68;;;3.38;;
52104;SDS011;38103;42.776;23.112;2022-07-21T02:08:40;9.27;;;3.60;;
52104;SDS011;38103;42.776;23.112;2022-07-21T02:11:07;13.32;;;3.70;;
52104;SDS011;38103;42.776;23.112;2022-07-21T02:13:34;12.20;;;4.07;;
52104;SDS011;38103;42.776;23.112;2022-07-21T02:15:59;13.43;;;3.70;;
52104;SDS011;38103;42.776;23.112;2022-07-21T02:18:25;10.25;;;3.47;;
52104;SDS011;38103;42.776;23.112;2022-07-21T02:20:50;10.52;;;3.75;;
52104;SDS011;38103;42.776;23.112;2022-07-21T02:23:16;9.75;;;3.65;;
52104;SDS011;38103;42.776;23.112;2022-07-21T02:25:42;9.30;;;3.80;;
52104;SDS011;38103;42.776;23.112;2022-07-21T02:28:08;10.00;;;3.47;;
52104;SDS011;38103;42.776;23.112;2022-07-21T02:30:34;10.43;;;3.50;;
52104;SDS011;38103;42.776;23.112;2022-07-21T02:32:59;9.90;;;3.63;;
52104;SDS011;38103;42.776;23.112;2022-07-21T02:35:25;11.85;;;3.75;;
52104;SDS011;38103;42.776;23.112;2022-07-21T02:37:50;9.43;;;3.58;;
52104;SDS011;38103;42.776;23.112;2022-07-21T02:40:15;12.75;;;3.80;;
52104;SDS011;38103;42.776;23.112;2022-07-21T02:42:41;10.85;;;3.22;;
52104;SDS011;38103;42.776;23.112;2022-07-21T02:45:07;10.63;;;3.95;;
52104;SDS011;38103;42.776;23.112;2022-07-21T02:50:33;10.57;;;3.92;;
52104;SDS011;38103;42.776;23.112;2022-07-21T02:53:02;11.27;;;4.20;;
52104;SDS011;38103;42.776;23.112;2022-07-21T02:55:30;9.75;;;3.63;;
52104;SDS011;38103;42.776;23.112;2022-07-21T03:01:00;10.95;;;3.63;;
52104;SDS011;38103;42.776;23.112;2022-07-21T03:03:29;9.73;;;3.80;;
52104;SDS011;38103;42.776;23.112;2022-07-21T03:05:56;11.60;;;3.30;;
52104;SDS011;38103;42.776;23.112;2022-07-21T03:08:22;11.68;;;3.92;;
52104;SDS011;38103;42.776;23.112;2022-07-21T03:10:48;10.15;;;4.00;;
52104;SDS011;38103;42.776;23.112;2022-07-21T03:13:14;12.35;;;3.88;;
52104;SDS011;38103;42.776;23.112;2022-07-21T03:15:40;9.07;;;3.50;;
52104;SDS011;38103;42.776;23.112;2022-07-21T03:18:06;10.13;;;3.70;;
52104;SDS011;38103;42.776;23.112;2022-07-21T03:20:33;16.17;;;4.07;;
52104;SDS011;38103;42.776;23.112;2022-07-21T03:23:00;9.90;;;3.72;;
52104;SDS011;38103;42.776;23.112;2022-07-21T03:25:26;13.13;;;3.90;;
52104;SDS011;38103;42.776;23.112;2022-07-21T03:27:52;10.35;;;3.50;;
52104;SDS011;38103;42.776;23.112;2022-07-21T03:30:18;9.20;;;3.72;;
52104;SDS011;38103;42.776;23.112;2022-07-21T03:32:44;9.98;;;3.78;;
52104;SDS011;38103;42.776;23.112;2022-07-21T03:35:10;9.82;;;3.70;;
52104;SDS011;38103;42.776;23.112;2022-07-21T03:37:43;11.52;;;3.90;;
52104;SDS011;38103;42.776;23.112;2022-07-21T03:40:11;9.30;;;3.83;;
52104;SDS011;38103;42.776;23.112;2022-07-21T03:42:38;10.35;;;3.72;;
52104;SDS011;38103;42.776;23.112;2022-07-21T03:45:04;13.30;;;3.50;;
52104;SDS011;38103;42.776;23.112;2022-07-21T03:47:31;8.70;;;3.35;;
52104;SDS011;38103;42.776;23.112;2022-07-21T03:49:56;10.07;;;3.40;;
52104;SDS011;38103;42.776;23.112;2022-07-21T03:52:21;9.50;;;3.53;;
52104;SDS011;38103;42.776;23.112;2022-07-21T03:54:47;11.35;;;3.40;;
52104;SDS011;38103;42.776;23.112;2022-07-21T03:57:12;9.20;;;3.30;;
52104;SDS011;38103;42.776;23.112;2022-07-21T03:59:38;11.00;;;3.70;;
52104;SDS011;38103;42.776;23.112;2022-07-21T04:02:03;9.40;;;3.30;;
52104;SDS011;38103;42.776;23.112;2022-07-21T04:04:28;9.50;;;3.47;;
52104;SDS011;38103;42.776;23.112;2022-07-21T04:06:54;9.50;;;3.33;;
52104;SDS011;38103;42.776;23.112;2022-07-21T04:09:19;9.52;;;3.30;;
52104;SDS011;38103;42.776;23.112;2022-07-21T04:11:44;10.73;;;3.38;;
52104;SDS011;38103;42.776;23.112;2022-07-21T04:14:10;10.18;;;3.55;;
52104;SDS011;38103;42.776;23.112;2022-07-21T04:16:36;10.68;;;3.42;;
52104;SDS011;38103;42.776;23.112;2022-07-21T04:19:01;9.40;;;3.50;;
52104;SDS011;38103;42.776;23.112;2022-07-21T04:21:26;13.73;;;3.40;;
52104;SDS011;38103;42.776;23.112;2022-07-21T04:23:52;8.25;;;2.90;;
52104;SDS011;38103;42.776;23.112;2022-07-21T04:26:17;12.75;;;3.40;;
52104;SDS011;38103;42.776;23.112;2022-07-21T04:28:43;16.75;;;3.65;;
52104;SDS011;38103;42.776;23.112;2022-07-21T04:31:08;11.65;;;3.22;;
52104;SDS011;38103;42.776;23.112;2022-07-21T04:33:33;11.82;;;3.28;;
52104;SDS011;38103;42.776;23.112;2022-07-21T04:36:00;11.43;;;3.65;;
52104;SDS011;38103;42.776;23.112;2022-07-21T04:38:25;11.73;;;3.67;;
52104;SDS011;38103;42.776;23.112;2022-07-21T04:40:51;8.40;;;3.10;;
52104;SDS011;38103;42.776;23.112;2022-07-21T04:43:16;13.68;;;3.35;;
52104;SDS011;38103;42.776;23.112;2022-07-21T04:45:41;10.23;;;3.45;;
52104;SDS011;38103;42.776;23.112;2022-07-21T04:48:07;10.02;;;3.33;;
52104;SDS011;38103;42.776;23.112;2022-07-21T04:50:32;8.57;;;3.35;;
52104;SDS011;38103;42.776;23.112;2022-07-21T04:52:58;9.20;;;3.15;;
52104;SDS011;38103;42.776;23.112;2022-07-21T04:55:24;9.45;;;3.47;;
52104;SDS011;38103;42.776;23.112;2022-07-21T04:57:50;8.80;;;3.35;;
52104;SDS011;38103;42.776;23.112;2022-07-21T05:00:18;11.25;;;3.55;;
52104;SDS011;38103;42.776;23.112;2022-07-21T05:02:45;12.63;;;3.55;;
52104;SDS011;38103;42.776;23.112;2022-07-21T05:05:11;10.93;;;3.55;;
52104;SDS011;38103;42.776;23.112;2022-07-21T05:07:38;10.25;;;3.83;;
52104;SDS011;38103;42.776;23.112;2022-07-21T05:10:06;8.27;;;3.03;;
52104;SDS011;38103;42.776;23.112;2022-07-21T05:12:34;10.18;;;3.25;;
52104;SDS011;38103;42.776;23.112;2022-07-21T05:15:00;9.40;;;3.20;;
52104;SDS011;38103;42.776;23.112;2022-07-21T05:17:26;12.10;;;3.35;;
52104;SDS011;38103;42.776;23.112;2022-07-21T05:19:52;10.77;;;3.50;;
52104;SDS011;38103;42.776;23.112;2022-07-21T05:22:17;11.40;;;3.58;;
52104;SDS011;38103;42.776;23.112;2022-07-21T05:24:43;11.15;;;3.30;;
52104;SDS011;38103;42.776;23.112;2022-07-21T05:27:08;8.95;;;3.30;;
52104;SDS011;38103;42.776;23.112;2022-07-21T05:29:34;10.05;;;3.40;;
52104;SDS011;38103;42.776;23.112;2022-07-21T05:31:59;11.27;;;3.58;;
52104;SDS011;38103;42.776;23.112;2022-07-21T05:34:25;10.48;;;3.55;;
52104;SDS011;38103;42.776;23.112;2022-07-21T05:36:50;10.98;;;3.35;;
52104;SDS011;38103;42.776;23.112;2022-07-21T05:39:16;9.30;;;3.40;;
52104;SDS011;38103;42.776;23.112;2022-07-21T05:41:41;12.75;;;3.58;;
52104;SDS011;38103;42.776;23.112;2022-07-21T05:44:07;12.10;;;4.00;;
52104;SDS011;38103;42.776;23.112;2022-07-21T05:46:32;9.80;;;3.92;;
52104;SDS011;38103;42.776;23.112;2022-07-21T05:48:57;10.43;;;4.35;;
52104;SDS011;38103;42.776;23.112;2022-07-21T05:51:23;11.93;;;4.40;;
52104;SDS011;38103;42.776;23.112;2022-07-21T05:53:48;10.32;;;3.70;;
52104;SDS011;38103;42.776;23.112;2022-07-21T05:56:14;10.25;;;3.85;;
52104;SDS011;38103;42.776;23.112;2022-07-21T05:58:39;11.43;;;3.78;;
52104;SDS011;38103;42.776;23.112;2022-07-21T06:01:05;10.50;;;3.92;;
52104;SDS011;38103;42.776;23.112;2022-07-21T06:03:36;12.85;;;3.90;;
52104;SDS011;38103;42.776;23.112;2022-07-21T06:06:03;12.48;;;4.13;;
52104;SDS011;38103;42.776;23.112;2022-07-21T06:08:28;15.80;;;4.15;;
52104;SDS011;38103;42.776;23.112;2022-07-21T06:10:54;10.70;;;3.75;;
52104;SDS011;38103;42.776;23.112;2022-07-21T06:13:20;10.32;;;3.88;;
52104;SDS011;38103;42.776;23.112;2022-07-21T06:15:45;11.13;;;3.78;;
52104;SDS011;38103;42.776;23.112;2022-07-21T06:18:11;10.40;;;3.90;;
52104;SDS011;38103;42.776;23.112;2022-07-21T06:20:36;10.98;;;3.60;;
52104;SDS011;38103;42.776;23.112;2022-07-21T06:23:02;11.52;;;3.20;;
52104;SDS011;38103;42.776;23.112;2022-07-21T06:25:27;9.68;;;3.38;;
52104;SDS011;38103;42.776;23.112;2022-07-21T06:27:52;8.77;;;2.88;;
52104;SDS011;38103;42.776;23.112;2022-07-21T06:30:18;8.65;;;2.92;;
52104;SDS011;38103;42.776;23.112;2022-07-21T06:32:44;9.82;;;2.80;;
52104;SDS011;38103;42.776;23.112;2022-07-21T06:35:09;8.60;;;2.90;;
52104;SDS011;38103;42.776;23.112;2022-07-21T06:37:35;10.05;;;2.90;;
52104;SDS011;38103;42.776;23.112;2022-07-21T06:40:00;8.77;;;3.03;;
52104;SDS011;38103;42.776;23.112;2022-07-21T06:42:26;8.95;;;3.10;;
52104;SDS011;38103;42.776;23.112;2022-07-21T06:44:51;9.13;;;2.80;;
52104;SDS011;38103;42.776;23.112;2022-07-21T06:47:16;7.90;;;2.65;;
52104;SDS011;38103;42.776;23.112;2022-07-21T06:49:42;7.38;;;2.67;;
52104;SDS011;38103;42.776;23.112;2022-07-21T06:52:07;7.88;;;3.00;;
52104;SDS011;38103;42.776;23.112;2022-07-21T06:54:33;10.40;;;2.95;;
52104;SDS011;38103;42.776;23.112;2022-07-21T06:56:58;7.53;;;2.70;;
52104;SDS011;38103;42.776;23.112;2022-07-21T06:59:24;9.07;;;2.80;;
52104;SDS011;38103;42.776;23.112;2022-07-21T07:01:49;8.98;;;2.78;;
52104;SDS011;38103;42.776;23.112;2022-07-21T07:04:14;12.18;;;3.40;;
52104;SDS011;38103;42.776;23.112;2022-07-21T07:06:40;11.07;;;3.42;;
52104;SDS011;38103;42.776;23.112;2022-07-21T07:09:05;8.77;;;3.15;;
52104;SDS011;38103;42.776;23.112;2022-07-21T07:11:31;8.70;;;2.90;;
52104;SDS011;38103;42.776;23.112;2022-07-21T07:13:59;9.63;;;2.95;;
52104;SDS011;38103;42.776;23.112;2022-07-21T07:16:25;7.68;;;2.75;;
52104;SDS011;38103;42.776;23.112;2022-07-21T07:18:50;11.75;;;2.90;;
52104;SDS011;38103;42.776;23.112;2022-07-21T07:21:15;10.05;;;2.90;;
52104;SDS011;38103;42.776;23.112;2022-07-21T07:23:41;8.68;;;2.80;;
52104;SDS011;38103;42.776;23.112;2022-07-21T07:26:07;10.20;;;2.95;;
52104;SDS011;38103;42.776;23.112;2022-07-21T07:28:33;9.27;;;3.03;;
52104;SDS011;38103;42.776;23.112;2022-07-21T07:30:59;8.43;;;2.80;;
52104;SDS011;38103;42.776;23.112;2022-07-21T07:33:24;8.18;;;3.00;;
52104;SDS011;38103;42.776;23.112;2022-07-21T07:35:50;8.75;;;2.85;;
52104;SDS011;38103;42.776;23.112;2022-07-21T07:38:16;7.18;;;2.60;;
52104;SDS011;38103;42.776;23.112;2022-07-21T07:40:42;6.88;;;2.53;;
52104;SDS011;38103;42.776;23.112;2022-07-21T07:43:08;10.68;;;2.95;;
52104;SDS011;38103;42.776;23.112;2022-07-21T07:45:34;9.13;;;2.90;;
52104;SDS011;38103;42.776;23.112;2022-07-21T07:48:01;9.48;;;2.83;;
52104;SDS011;38103;42.776;23.112;2022-07-21T07:50:27;10.50;;;2.90;;
52104;SDS011;38103;42.776;23.112;2022-07-21T07:52:53;11.05;;;2.72;;
52104;SDS011;38103;42.776;23.112;2022-07-21T07:55:19;9.45;;;2.72;;
52104;SDS011;38103;42.776;23.112;2022-07-21T07:57:45;8.45;;;2.90;;
52104;SDS011;38103;42.776;23.112;2022-07-21T08:00:12;9.68;;;3.05;;
52104;SDS011;38103;42.776;23.112;2022-07-21T08:02:40;13.43;;;3.22;;
52104;SDS011;38103;42.776;23.112;2022-07-21T08:05:06;8.52;;;2.83;;
52104;SDS011;38103;42.776;23.112;2022-07-21T08:07:33;8.93;;;2.97;;
52104;SDS011;38103;42.776;23.112;2022-07-21T08:09:59;10.52;;;2.60;;
52104;SDS011;38103;42.776;23.112;2022-07-21T08:12:24;9.38;;;3.10;;
52104;SDS011;38103;42.776;23.112;2022-07-21T08:14:50;8.07;;;2.72;;
52104;SDS011;38103;42.776;23.112;2022-07-21T08:17:15;10.02;;;2.80;;
52104;SDS011;38103;42.776;23.112;2022-07-21T08:19:41;10.40;;;2.90;;
52104;SDS011;38103;42.776;23.112;2022-07-21T08:22:07;8.52;;;3.05;;
52104;SDS011;38103;42.776;23.112;2022-07-21T08:24:33;8.73;;;2.70;;
52104;SDS011;38103;42.776;23.112;2022-07-21T08:26:58;9.45;;;2.90;;
52104;SDS011;38103;42.776;23.112;2022-07-21T08:29:23;8.38;;;2.60;;
52104;SDS011;38103;42.776;23.112;2022-07-21T08:31:49;11.38;;;2.80;;
52104;SDS011;38103;42.776;23.112;2022-07-21T08:34:14;9.98;;;3.00;;
52104;SDS011;38103;42.776;23.112;2022-07-21T08:36:40;9.93;;;2.97;;
52104;SDS011;38103;42.776;23.112;2022-07-21T08:39:05;12.88;;;3.13;;
52104;SDS011;38103;42.776;23.112;2022-07-21T08:41:31;7.30;;;2.63;;
52104;SDS011;38103;42.776;23.112;2022-07-21T08:43:57;8.68;;;2.75;;
52104;SDS011;38103;42.776;23.112;2022-07-21T08:46:23;9.43;;;2.97;;
52104;SDS011;38103;42.776;23.112;2022-07-21T08:48:49;9.45;;;2.80;;
52104;SDS011;38103;42.776;23.112;2022-07-21T08:51:15;9.57;;;2.97;;
52104;SDS011;38103;42.776;23.112;2022-07-21T08:53:47;9.40;;;2.70;;
52104;SDS011;38103;42.776;23.112;2022-07-21T08:56:13;8.48;;;2.92;;
52104;SDS011;38103;42.776;23.112;2022-07-21T08:58:39;9.20;;;2.85;;
52104;SDS011;38103;42.776;23.112;2022-07-21T09:01:04;10.15;;;2.85;;
52104;SDS011;38103;42.776;23.112;2022-07-21T09:03:30;8.38;;;2.85;;
52104;SDS011;38103;42.776;23.112;2022-07-21T09:06:18;8.48;;;2.95;;
52104;SDS011;38103;42.776;23.112;2022-07-21T09:08:46;9.48;;;3.08;;
52104;SDS011;38103;42.776;23.112;2022-07-21T09:14:04;9.77;;;2.90;;
52104;SDS011;38103;42.776;23.112;2022-07-21T09:16:31;8.55;;;3.08;;
52104;SDS011;38103;42.776;23.112;2022-07-21T09:18:57;9.88;;;3.25;;
52104;SDS011;38103;42.776;23.112;2022-07-21T09:21:23;8.02;;;3.00;;
52104;SDS011;38103;42.776;23.112;2022-07-21T09:23:48;9.70;;;2.83;;
52104;SDS011;38103;42.776;23.112;2022-07-21T09:26:13;9.93;;;3.05;;
52104;SDS011;38103;42.776;23.112;2022-07-21T09:28:40;12.25;;;3.42;;
52104;SDS011;38103;42.776;23.112;2022-07-21T09:31:07;9.35;;;2.80;;
52104;SDS011;38103;42.776;23.112;2022-07-21T09:33:41;8.50;;;2.95;;
52104;SDS011;38103;42.776;23.112;2022-07-21T09:38:35;9.05;;;3.30;;
52104;SDS011;38103;42.776;23.112;2022-07-21T09:41:15;10.30;;;2.88;;
52104;SDS011;38103;42.776;23.112;2022-07-21T09:43:46;8.57;;;3.50;;
52104;SDS011;38103;42.776;23.112;2022-07-21T09:48:52;10.07;;;3.35;;
52104;SDS011;38103;42.776;23.112;2022-07-21T09:51:26;8.98;;;3.20;;
52104;SDS011;38103;42.776;23.112;2022-07-21T09:54:06;10.93;;;3.40;;
52104;SDS011;38103;42.776;23.112;2022-07-21T09:56:34;9.55;;;3.25;;
52104;SDS011;38103;42.776;23.112;2022-07-21T09:59:01;9.55;;;3.50;;
52104;SDS011;38103;42.776;23.112;2022-07-21T10:01:28;8.40;;;2.80;;
52104;SDS011;38103;42.776;23.112;2022-07-21T10:03:55;8.80;;;3.10;;
52104;SDS011;38103;42.776;23.112;2022-07-21T10:06:54;9.60;;;3.05;;
52104;SDS011;38103;42.776;23.112;2022-07-21T10:09:13;8.15;;;3.17;;
52104;SDS011;38103;42.776;23.112;2022-07-21T10:11:40;9.25;;;3.00;;
52104;SDS011;38103;42.776;23.112;2022-07-21T10:14:08;10.18;;;3.15;;
52104;SDS011;38103;42.776;23.112;2022-07-21T10:16:35;8.30;;;2.85;;
52104;SDS011;38103;42.776;23.112;2022-07-21T10:19:13;9.80;;;3.65;;
52104;SDS011;38103;42.776;23.112;2022-07-21T10:22:18;8.90;;;3.30;;
52104;SDS011;38103;42.776;23.112;2022-07-21T10:24:46;8.52;;;3.30;;
52104;SDS011;38103;42.776;23.112;2022-07-21T10:27:12;9.13;;;3.53;;
52104;SDS011;38103;42.776;23.112;2022-07-21T10:29:48;10.13;;;3.92;;
52104;SDS011;38103;42.776;23.112;2022-07-21T10:32:22;11.25;;;3.83;;
52104;SDS011;38103;42.776;23.112;2022-07-21T10:34:51;9.85;;;4.15;;
52104;SDS011;38103;42.776;23.112;2022-07-21T10:45:34;10.05;;;3.80;;
52104;SDS011;38103;42.776;23.112;2022-07-21T10:48:03;9.63;;;3.85;;
52104;SDS011;38103;42.776;23.112;2022-07-21T10:52:57;22.65;;;4.03;;
52104;SDS011;38103;42.776;23.112;2022-07-21T10:55:25;9.70;;;3.88;;
52104;SDS011;38103;42.776;23.112;2022-07-21T11:00:56;11.75;;;4.05;;
52104;SDS011;38103;42.776;23.112;2022-07-21T11:03:27;10.50;;;4.32;;
52104;SDS011;38103;42.776;23.112;2022-07-21T11:14:00;10.02;;;3.60;;
52104;SDS011;38103;42.776;23.112;2022-07-21T11:21:58;9.30;;;3.65;;
52104;SDS011;38103;42.776;23.112;2022-07-21T11:24:26;9.85;;;3.75;;
52104;SDS011;38103;42.776;23.112;2022-07-21T11:29:25;10.82;;;3.55;;
52104;SDS011;38103;42.776;23.112;2022-07-21T11:31:52;11.68;;;3.63;;
52104;SDS011;38103;42.776;23.112;2022-07-21T11:34:18;9.45;;;3.50;;
52104;SDS011;38103;42.776;23.112;2022-07-21T11:36:44;10.13;;;3.40;;
52104;SDS011;38103;42.776;23.112;2022-07-21T11:39:11;10.75;;;3.30;;
52104;SDS011;38103;42.776;23.112;2022-07-21T11:41:38;10.65;;;3.55;;
52104;SDS011;38103;42.776;23.112;2022-07-21T11:44:06;9.60;;;3.45;;
52104;SDS011;38103;42.776;23.112;2022-07-21T11:46:46;11.27;;;3.30;;
52104;SDS011;38103;42.776;23.112;2022-07-21T11:49:14;9.90;;;3.30;;
52104;SDS011;38103;42.776;23.112;2022-07-21T11:51:47;11.90;;;3.50;;
52104;SDS011;38103;42.776;23.112;2022-07-21T11:56:50;9.65;;;3.30;;
52104;SDS011;38103;42.776;23.112;2022-07-21T11:59:17;12.27;;;3.38;;
52104;SDS011;38103;42.776;23.112;2022-07-21T12:04:25;9.75;;;3.42;;
52104;SDS011;38103;42.776;23.112;2022-07-21T12:07:03;9.40;;;3.30;;
52104;SDS011;38103;42.776;23.112;2022-07-21T12:09:32;10.68;;;3.40;;
52104;SDS011;38103;42.776;23.112;2022-07-21T12:11:58;10.30;;;3.28;;
52104;SDS011;38103;42.776;23.112;2022-07-21T12:14:41;9.85;;;3.08;;
52104;SDS011;38103;42.776;23.112;2022-07-21T12:17:14;8.85;;;3.22;;
52104;SDS011;38103;42.776;23.112;2022-07-21T12:19:41;10.13;;;3.28;;
52104;SDS011;38103;42.776;23.112;2022-07-21T12:22:07;10.55;;;3.10;;
52104;SDS011;38103;42.776;23.112;2022-07-21T12:24:52;11.70;;;3.30;;
52104;SDS011;38103;42.776;23.112;2022-07-21T12:27:19;9.52;;;3.00;;
52104;SDS011;38103;42.776;23.112;2022-07-21T12:29:45;7.93;;;2.85;;
52104;SDS011;38103;42.776;23.112;2022-07-21T12:32:12;9.10;;;3.20;;
52104;SDS011;38103;42.776;23.112;2022-07-21T12:34:51;9.55;;;3.30;;
52104;SDS011;38103;42.776;23.112;2022-07-21T12:37:17;10.10;;;3.45;;
52104;SDS011;38103;42.776;23.112;2022-07-21T12:39:43;14.00;;;3.47;;
52104;SDS011;38103;42.776;23.112;2022-07-21T12:42:32;12.02;;;3.45;;
52104;SDS011;38103;42.776;23.112;2022-07-21T12:45:15;8.25;;;3.00;;
52104;SDS011;38103;42.776;23.112;2022-07-21T12:48:05;9.23;;;3.30;;
52104;SDS011;38103;42.776;23.112;2022-07-21T12:50:35;10.57;;;3.65;;
52104;SDS011;38103;42.776;23.112;2022-07-21T12:53:03;10.95;;;3.03;;
52104;SDS011;38103;42.776;23.112;2022-07-21T12:55:29;10.70;;;3.50;;
52104;SDS011;38103;42.776;23.112;2022-07-21T12:57:54;9.90;;;3.38;;
52104;SDS011;38103;42.776;23.112;2022-07-21T13:00:20;9.68;;;3.83;;
52104;SDS011;38103;42.776;23.112;2022-07-21T13:02:46;11.68;;;3.50;;
52104;SDS011;38103;42.776;23.112;2022-07-21T13:05:12;11.65;;;3.30;;
52104;SDS011;38103;42.776;23.112;2022-07-21T13:07:37;12.32;;;3.55;;
52104;SDS011;38103;42.776;23.112;2022-07-21T13:10:02;9.45;;;3.25;;
52104;SDS011;38103;42.776;23.112;2022-07-21T13:12:28;7.88;;;2.92;;
52104;SDS011;38103;42.776;23.112;2022-07-21T13:14:53;11.88;;;3.30;;
52104;SDS011;38103;42.776;23.112;2022-07-21T13:17:19;12.57;;;3.28;;
52104;SDS011;38103;42.776;23.112;2022-07-21T13:19:44;11.35;;;3.20;;
52104;SDS011;38103;42.776;23.112;2022-07-21T13:22:09;11.55;;;3.20;;
52104;SDS011;38103;42.776;23.112;2022-07-21T13:24:35;11.73;;;3.63;;
52104;SDS011;38103;42.776;23.112;2022-07-21T13:27:00;8.23;;;2.72;;
52104;SDS011;38103;42.776;23.112;2022-07-21T13:29:25;8.05;;;3.10;;
52104;SDS011;38103;42.776;23.112;2022-07-21T13:31:51;9.73;;;3.50;;
52104;SDS011;38103;42.776;23.112;2022-07-21T13:34:16;10.57;;;3.05;;
52104;SDS011;38103;42.776;23.112;2022-07-21T13:36:42;10.60;;;3.10;;
52104;SDS011;38103;42.776;23.112;2022-07-21T13:39:07;10.35;;;3.00;;
52104;SDS011;38103;42.776;23.112;2022-07-21T13:41:33;9.60;;;3.20;;
52104;SDS011;38103;42.776;23.112;2022-07-21T13:43:59;8.40;;;2.85;;
52104;SDS011;38103;42.776;23.112;2022-07-21T13:46:25;9.50;;;3.00;;
52104;SDS011;38103;42.776;23.112;2022-07-21T13:48:51;13.82;;;3.70;;
52104;SDS011;38103;42.776;23.112;2022-07-21T13:51:17;8.60;;;3.10;;
52104;SDS011;38103;42.776;23.112;2022-07-21T13:53:44;9.30;;;3.30;;
52104;SDS011;38103;42.776;23.112;2022-07-21T13:56:10;8.50;;;3.00;;
52104;SDS011;38103;42.776;23.112;2022-07-21T13:58:36;8.50;;;3.00;;
52104;SDS011;38103;42.776;23.112;2022-07-21T14:01:02;14.75;;;3.40;;
52104;SDS011;38103;42.776;23.112;2022-07-21T14:03:28;11.95;;;3.60;;
52104;SDS011;38103;42.776;23.112;2022-07-21T14:05:53;10.25;;;3.00;;
52104;SDS011;38103;42.776;23.112;2022-07-21T14:08:19;9.10;;;3.00;;
52104;SDS011;38103;42.776;23.112;2022-07-21T14:10:44;10.68;;;3.33;;
52104;SDS011;38103;42.776;23.112;2022-07-21T14:13:10;12.82;;;3.20;;
52104;SDS011;38103;42.776;23.112;2022-07-21T14:15:36;9.73;;;3.20;;
52104;SDS011;38103;42.776;23.112;2022-07-21T14:18:01;11.25;;;3.58;;
52104;SDS011;38103;42.776;23.112;2022-07-21T14:20:27;10.73;;;2.95;;
52104;SDS011;38103;42.776;23.112;2022-07-21T14:22:53;24.52;;;4.03;;
52104;SDS011;38103;42.776;23.112;2022-07-21T14:25:21;9.13;;;3.00;;
52104;SDS011;38103;42.776;23.112;2022-07-21T14:27:48;10.80;;;3.10;;
52104;SDS011;38103;42.776;23.112;2022-07-21T14:30:16;8.77;;;2.85;;
52104;SDS011;38103;42.776;23.112;2022-07-21T14:32:42;10.07;;;3.25;;
52104;SDS011;38103;42.776;23.112;2022-07-21T14:35:08;10.93;;;3.20;;
52104;SDS011;38103;42.776;23.112;2022-07-21T14:37:34;10.23;;;3.30;;
52104;SDS011;38103;42.776;23.112;2022-07-21T14:40:00;9.48;;;3.03;;
52104;SDS011;38103;42.776;23.112;2022-07-21T14:42:25;10.82;;;3.25;;
52104;SDS011;38103;42.776;23.112;2022-07-21T14:44:51;9.10;;;3.30;;
52104;SDS011;38103;42.776;23.112;2022-07-21T14:47:16;13.63;;;3.42;;
52104;SDS011;38103;42.776;23.112;2022-07-21T14:49:42;8.93;;;3.20;;
52104;SDS011;38103;42.776;23.112;2022-07-21T14:52:08;10.93;;;3.05;;
52104;SDS011;38103;42.776;23.112;2022-07-21T14:54:34;10.07;;;3.33;;
52104;SDS011;38103;42.776;23.112;2022-07-21T14:57:02;12.60;;;3.60;;
52104;SDS011;38103;42.776;23.112;2022-07-21T14:59:29;11.18;;;3.35;;
52104;SDS011;38103;42.776;23.112;2022-07-21T15:01:54;10.82;;;3.47;;
52104;SDS011;38103;42.776;23.112;2022-07-21T15:04:19;9.43;;;3.10;;
52104;SDS011;38103;42.776;23.112;2022-07-21T15:06:47;11.98;;;3.50;;
52104;SDS011;38103;42.776;23.112;2022-07-21T15:09:12;8.70;;;3.22;;
52104;SDS011;38103;42.776;23.112;2022-07-21T15:11:38;9.55;;;3.00;;
52104;SDS011;38103;42.776;23.112;2022-07-21T15:14:03;11.15;;;3.40;;
52104;SDS011;38103;42.776;23.112;2022-07-21T15:16:28;8.98;;;3.10;;